createdAt,value
2022-12-26T00:00:59.472Z,2.33
2022-12-26T00:03:27.203Z,2.53
2022-12-26T00:05:56.284Z,2.40
2022-12-26T00:08:23.992Z,2.15
2022-12-26T00:10:51.544Z,2.00
2022-12-26T00:13:40.393Z,2.38
2022-12-26T00:16:08.325Z,2.40
2022-12-26T00:18:35.946Z,2.30
2022-12-26T00:21:05.483Z,2.22
2022-12-26T00:23:33.767Z,2.20
2022-12-26T00:26:04.138Z,2.20
2022-12-26T00:28:31.847Z,2.60
2022-12-26T00:30:59.694Z,2.40
2022-12-26T00:33:28.124Z,2.20
2022-12-26T00:35:55.739Z,2.40
2022-12-26T00:38:24.853Z,2.22
2022-12-26T00:40:52.374Z,2.38
2022-12-26T00:43:20.015Z,2.20
2022-12-26T00:45:49.070Z,2.40
2022-12-26T00:48:16.643Z,2.40
2022-12-26T00:50:44.220Z,2.42
2022-12-26T00:53:11.859Z,2.40
2022-12-26T00:55:41.126Z,2.10
2022-12-26T00:58:08.876Z,2.08
2022-12-26T01:00:37.530Z,2.25
2022-12-26T01:03:07.951Z,2.10
2022-12-26T01:05:35.998Z,2.50
2022-12-26T01:08:22.986Z,2.08
2022-12-26T01:10:53.356Z,2.20
2022-12-26T01:13:21.352Z,2.25
2022-12-26T01:15:50.897Z,2.33
2022-12-26T01:18:18.683Z,2.22
2022-12-26T01:20:46.394Z,2.17
2022-12-26T01:23:14.144Z,2.15
2022-12-26T01:26:16.350Z,2.15
2022-12-26T01:28:30.846Z,2.63
2022-12-26T01:31:02.644Z,2.20
2022-12-26T01:33:30.390Z,2.30
2022-12-26T01:35:58.069Z,2.37
2022-12-26T01:38:25.766Z,2.00
2022-12-26T01:41:13.410Z,2.35
2022-12-26T01:43:54.732Z,2.10
2022-12-26T01:46:25.412Z,2.15
2022-12-26T01:48:54.160Z,2.13
2022-12-26T01:51:26.854Z,2.50
2022-12-26T01:54:41.013Z,1.80
2022-12-26T01:56:48.406Z,2.30
2022-12-26T01:59:23.086Z,2.10
2022-12-26T02:01:54.706Z,2.03
2022-12-26T02:04:49.374Z,2.15
2022-12-26T02:07:17.048Z,2.17
2022-12-26T02:09:44.648Z,2.10
2022-12-26T02:12:33.996Z,2.15
2022-12-26T02:15:11.311Z,2.20
2022-12-26T02:17:40.250Z,2.10
2022-12-26T02:20:18.591Z,2.05
2022-12-26T02:23:12.579Z,2.23
2022-12-26T02:26:16.585Z,1.70
2022-12-26T02:29:28.358Z,1.60
2022-12-26T02:32:06.669Z,1.90
2022-12-26T02:34:41.320Z,1.88
2022-12-26T02:37:25.012Z,2.10
2022-12-26T02:40:08.962Z,1.90
2022-12-26T02:42:49.898Z,2.10
2022-12-26T02:45:44.156Z,2.00
2022-12-26T02:48:19.092Z,1.88
2022-12-26T02:51:17.666Z,2.10
2022-12-26T02:54:09.993Z,2.20
2022-12-26T02:56:58.798Z,2.22
2022-12-26T02:59:55.974Z,2.03
2022-12-26T03:02:48.765Z,2.10
2022-12-26T03:05:40.777Z,2.10
2022-12-26T03:08:31.413Z,1.90
2022-12-26T03:11:17.311Z,2.03
2022-12-26T03:13:46.899Z,1.90
2022-12-26T03:16:34.426Z,2.20
2022-12-26T03:19:07.413Z,1.92
2022-12-26T03:21:40.941Z,1.67
2022-12-26T03:24:12.006Z,2.05
2022-12-26T03:26:43.632Z,2.10
2022-12-26T03:29:30.904Z,1.85
2022-12-26T03:31:59.433Z,1.80
2022-12-26T03:34:28.249Z,2.00
2022-12-26T03:37:47.282Z,2.00
2022-12-26T03:40:47.639Z,2.10
2022-12-26T03:43:43.415Z,1.92
2022-12-26T03:46:36.048Z,2.03
2022-12-26T03:49:28.065Z,2.22
2022-12-26T03:52:20.232Z,1.80
2022-12-26T03:55:13.685Z,1.92
2022-12-26T03:58:07.996Z,1.75
2022-12-26T04:00:54.247Z,1.80
2022-12-26T04:03:42.650Z,2.00
2022-12-26T04:06:35.705Z,1.77
2022-12-26T04:09:38.047Z,2.00
2022-12-26T04:12:29.725Z,1.75
2022-12-26T04:15:19.025Z,1.65
2022-12-26T04:18:09.413Z,1.98
2022-12-26T04:20:44.427Z,1.83
2022-12-26T04:23:37.110Z,2.03
2022-12-26T04:26:27.669Z,1.90
2022-12-26T04:29:14.243Z,2.00
2022-12-26T04:32:05.242Z,2.03
2022-12-26T04:35:00.287Z,2.15
2022-12-26T04:37:47.472Z,2.25
2022-12-26T04:40:38.584Z,2.13
2022-12-26T04:43:48.962Z,2.05
2022-12-26T04:46:16.232Z,1.65
2022-12-26T04:49:03.640Z,2.03
2022-12-26T04:51:31.273Z,1.73
2022-12-26T04:53:58.892Z,1.95
2022-12-26T04:56:26.487Z,2.03
2022-12-26T04:58:54.090Z,2.15
2022-12-26T05:01:40.701Z,2.15
2022-12-26T05:04:31.039Z,2.00
2022-12-26T05:07:16.851Z,2.10
2022-12-26T05:09:44.659Z,1.83
2022-12-26T05:12:12.333Z,2.13
2022-12-26T05:14:39.993Z,2.07
2022-12-26T05:17:26.726Z,2.08
2022-12-26T05:20:12.074Z,1.83
2022-12-26T05:23:01.715Z,2.30
2022-12-26T05:25:51.044Z,2.13
2022-12-26T05:28:37.318Z,2.08
2022-12-26T05:31:05.846Z,2.25
2022-12-26T05:33:52.709Z,2.07
2022-12-26T05:36:22.758Z,2.35
2022-12-26T05:38:50.423Z,2.60
2022-12-26T05:41:18.770Z,2.40
2022-12-26T05:43:46.616Z,1.90
2022-12-26T05:46:14.268Z,2.30
2022-12-26T05:48:43.292Z,1.85
2022-12-26T05:51:11.096Z,2.13
2022-12-26T05:53:38.802Z,2.17
2022-12-26T05:56:07.729Z,2.17
2022-12-26T05:58:35.591Z,1.83
2022-12-26T06:01:08.576Z,2.17
2022-12-26T06:03:36.602Z,2.00
2022-12-26T06:06:06.415Z,1.98
2022-12-26T06:08:34.351Z,2.05
2022-12-26T06:11:06.036Z,1.90
2022-12-26T06:13:34.384Z,2.47
2022-12-26T06:16:05.720Z,1.85
2022-12-26T06:18:33.759Z,1.92
2022-12-26T06:21:06.287Z,2.20
2022-12-26T06:23:33.966Z,2.20
2022-12-26T06:26:01.741Z,1.95
2022-12-26T06:28:29.450Z,2.30
2022-12-26T06:31:03.331Z,2.10
2022-12-26T06:33:31.405Z,1.90
2022-12-26T06:36:04.391Z,2.20
2022-12-26T06:38:33.612Z,2.13
2022-12-26T06:41:01.269Z,2.10
2022-12-26T06:43:28.928Z,1.98
2022-12-26T06:45:57.479Z,2.40
2022-12-26T06:48:25.691Z,2.35
2022-12-26T06:50:54.384Z,2.20
2022-12-26T06:53:22.368Z,2.22
2022-12-26T06:55:52.198Z,2.38
2022-12-26T06:58:19.846Z,1.85
2022-12-26T07:00:47.486Z,2.03
2022-12-26T07:03:15.165Z,2.05
2022-12-26T07:05:42.817Z,2.10
2022-12-26T07:08:10.444Z,2.00
2022-12-26T07:10:38.453Z,2.13
2022-12-26T07:13:07.463Z,2.00
2022-12-26T07:15:35.118Z,1.77
2022-12-26T07:18:02.689Z,1.90
2022-12-26T07:20:30.291Z,1.90
2022-12-26T07:22:57.882Z,1.70
2022-12-26T07:25:25.513Z,1.65
2022-12-26T07:27:54.992Z,1.90
2022-12-26T07:30:23.994Z,1.85
2022-12-26T07:32:51.599Z,1.60
2022-12-26T07:35:19.208Z,1.90
2022-12-26T07:37:46.746Z,1.90
2022-12-26T07:40:14.585Z,1.80
2022-12-26T07:42:42.102Z,1.70
2022-12-26T07:45:10.559Z,1.70
2022-12-26T07:47:39.679Z,1.73
2022-12-26T07:50:08.614Z,1.60
2022-12-26T07:52:36.179Z,1.92
2022-12-26T07:55:04.444Z,1.90
2022-12-26T07:57:48.717Z,1.52
2022-12-26T08:00:18.808Z,1.52
2022-12-26T08:02:48.699Z,1.80
2022-12-26T08:05:17.207Z,2.50
2022-12-26T08:07:47.230Z,2.10
2022-12-26T08:10:14.884Z,1.70
2022-12-26T08:12:42.440Z,2.00
2022-12-26T08:15:12.585Z,1.90
2022-12-26T08:17:40.206Z,1.77
2022-12-26T08:20:10.072Z,2.00
2022-12-26T08:22:37.685Z,2.42
2022-12-26T08:25:06.369Z,6.25
2022-12-26T08:27:34.907Z,4.80
2022-12-26T08:30:02.616Z,4.30
2022-12-26T08:32:30.235Z,2.10
2022-12-26T08:34:57.911Z,2.20
2022-12-26T08:37:26.961Z,2.47
2022-12-26T08:39:54.540Z,19.85
2022-12-26T08:42:22.895Z,2.50
2022-12-26T08:44:50.645Z,1.63
2022-12-26T08:47:18.299Z,1.50
2022-12-26T08:49:45.969Z,1.60
2022-12-26T08:52:40.294Z,1.52
2022-12-26T08:55:09.889Z,1.50
2022-12-26T08:57:37.511Z,1.58
2022-12-26T09:00:07.674Z,1.77
2022-12-26T09:02:35.493Z,1.70
2022-12-26T09:05:03.183Z,1.40
2022-12-26T09:07:30.786Z,1.60
2022-12-26T09:09:59.715Z,1.58
2022-12-26T09:12:27.838Z,1.40
2022-12-26T09:14:55.550Z,1.60
2022-12-26T09:17:26.267Z,1.50
2022-12-26T09:19:53.944Z,1.50
2022-12-26T09:22:39.198Z,1.98
2022-12-26T09:25:08.896Z,2.30
2022-12-26T09:27:36.481Z,1.38
2022-12-26T09:30:04.560Z,1.27
2022-12-26T09:32:33.908Z,1.30
2022-12-26T09:35:01.837Z,2.10
2022-12-26T09:37:29.546Z,3.00
2022-12-26T09:39:57.268Z,2.20
2022-12-26T09:42:33.227Z,2.00
2022-12-26T09:45:09.453Z,2.47
2022-12-26T09:47:42.409Z,2.60
2022-12-26T09:50:15.887Z,1.52
2022-12-26T09:52:49.632Z,1.52
2022-12-26T09:55:30.405Z,2.08
2022-12-26T09:58:05.683Z,1.83
2022-12-26T10:00:39.564Z,1.65
2022-12-26T10:03:08.091Z,1.40
2022-12-26T10:05:41.718Z,1.90
2022-12-26T10:08:23.083Z,1.70
2022-12-26T10:10:58.514Z,1.70
2022-12-26T10:13:35.321Z,1.40
2022-12-26T10:16:09.708Z,1.13
2022-12-26T10:18:54.424Z,1.00
2022-12-26T10:21:36.780Z,1.35
2022-12-26T10:24:15.650Z,1.47
2022-12-26T10:26:47.062Z,1.48
2022-12-26T10:29:22.262Z,1.20
2022-12-26T10:31:54.531Z,1.40
2022-12-26T10:34:26.663Z,1.40
2022-12-26T10:37:00.186Z,1.10
2022-12-26T10:39:34.221Z,1.13
2022-12-26T10:42:09.181Z,1.40
2022-12-26T10:44:38.472Z,1.40
2022-12-26T10:47:20.592Z,1.60
2022-12-26T10:49:49.455Z,1.40
2022-12-26T10:52:19.110Z,1.70
2022-12-26T10:54:50.288Z,1.83
2022-12-26T10:57:41.371Z,1.63
2022-12-26T11:00:20.952Z,1.27
2022-12-26T11:03:03.432Z,1.33
2022-12-26T11:08:22.694Z,1.23
2022-12-26T11:11:05.529Z,1.40
2022-12-26T11:13:39.978Z,1.10
2022-12-26T11:16:10.954Z,1.37
2022-12-26T11:18:47.713Z,1.20
2022-12-26T11:21:23.164Z,1.30
2022-12-26T11:23:52.477Z,1.47
2022-12-26T11:26:23.448Z,1.23
2022-12-26T11:29:07.433Z,1.25
2022-12-26T11:31:37.247Z,1.33
2022-12-26T11:34:10.427Z,0.98
2022-12-26T11:36:41.423Z,1.40
2022-12-26T11:39:23.121Z,1.20
2022-12-26T11:41:52.070Z,1.20
2022-12-26T11:44:26.283Z,1.20
2022-12-26T11:47:00.024Z,1.05
2022-12-26T11:49:31.877Z,1.30
2022-12-26T11:52:01.795Z,1.13
2022-12-26T11:54:36.327Z,0.90
2022-12-26T11:57:12.793Z,0.90
2022-12-26T11:59:40.658Z,1.00
2022-12-26T12:02:30.637Z,1.10
2022-12-26T12:05:01.703Z,1.40
2022-12-26T12:08:00.229Z,1.00
2022-12-26T12:10:51.436Z,1.30
2022-12-26T12:13:31.073Z,1.20
2022-12-26T12:16:05.758Z,1.10
2022-12-26T12:18:48.720Z,0.90
2022-12-26T12:21:25.328Z,1.20
2022-12-26T12:24:19.330Z,17.45
2022-12-26T12:26:58.745Z,10.68
2022-12-26T12:29:43.174Z,1.50
2022-12-26T12:32:19.444Z,1.50
2022-12-26T12:35:17.995Z,1.80
2022-12-26T12:38:01.497Z,1.30
2022-12-26T12:40:36.855Z,1.30
2022-12-26T12:43:16.348Z,1.60
2022-12-26T12:45:52.539Z,2.13
2022-12-26T12:48:47.660Z,1.73
2022-12-26T12:51:27.598Z,1.38
2022-12-26T12:54:22.350Z,1.60
2022-12-26T12:56:57.236Z,2.50
2022-12-26T12:59:33.798Z,1.52
2022-12-26T13:02:11.041Z,2.00
2022-12-26T13:04:45.299Z,2.08
2022-12-26T13:07:19.558Z,1.40
2022-12-26T13:09:51.042Z,1.85
2022-12-26T13:12:22.476Z,2.50
2022-12-26T13:14:53.793Z,2.10
2022-12-26T13:17:26.077Z,2.25
2022-12-26T13:20:02.661Z,2.22
2022-12-26T13:22:53.824Z,2.33
2022-12-26T13:25:23.512Z,3.60
2022-12-26T13:27:54.535Z,4.15
2022-12-26T13:30:22.321Z,3.55
2022-12-26T13:32:49.919Z,1.90
2022-12-26T13:35:53.617Z,2.47
2022-12-26T13:38:24.122Z,2.93
2022-12-26T13:41:17.760Z,4.07
2022-12-26T13:44:00.117Z,2.80
2022-12-26T13:46:38.788Z,4.30
2022-12-26T13:49:26.467Z,2.93
2022-12-26T13:52:22.217Z,5.28
2022-12-26T13:55:30.138Z,1.65
2022-12-26T13:58:23.633Z,2.15
2022-12-26T14:00:53.431Z,5.43
2022-12-26T14:03:53.139Z,30.40
2022-12-26T14:06:47.018Z,3.30
2022-12-26T14:09:29.852Z,1.98
2022-12-26T14:12:11.879Z,1.70
2022-12-26T14:14:54.633Z,1.90
2022-12-26T14:17:40.889Z,2.00
2022-12-26T14:20:37.209Z,2.38
2022-12-26T14:23:22.720Z,1.70
2022-12-26T14:25:58.966Z,1.50
2022-12-26T14:28:33.913Z,1.63
2022-12-26T14:31:14.657Z,1.38
2022-12-26T14:33:50.903Z,2.20
2022-12-26T14:36:35.205Z,2.55
2022-12-26T14:39:13.812Z,2.33
2022-12-26T14:42:36.749Z,2.00
2022-12-26T14:45:34.245Z,1.40
2022-12-26T14:48:02.269Z,1.40
2022-12-26T14:50:43.210Z,0.98
2022-12-26T14:53:38.038Z,1.20
2022-12-26T14:56:33.986Z,1.30
2022-12-26T14:59:28.617Z,1.20
2022-12-26T15:02:11.668Z,1.05
2022-12-26T15:04:52.582Z,1.15
2022-12-26T15:08:07.863Z,1.30
2022-12-26T15:11:21.940Z,1.50
2022-12-26T15:14:29.784Z,1.50
2022-12-26T15:17:09.450Z,1.30
2022-12-26T15:20:16.704Z,1.30
2022-12-26T15:23:07.033Z,0.82
2022-12-26T15:26:05.180Z,0.80
2022-12-26T15:28:57.651Z,0.90
2022-12-26T15:31:37.857Z,1.88
2022-12-26T15:34:26.806Z,0.70
2022-12-26T15:36:58.072Z,1.10
2022-12-26T15:39:33.568Z,0.85
2022-12-26T15:42:17.001Z,1.08
2022-12-26T15:44:52.150Z,1.48
2022-12-26T15:47:28.252Z,1.20
2022-12-26T15:50:18.408Z,1.75
2022-12-26T15:52:56.652Z,1.10
2022-12-26T15:55:39.164Z,1.00
2022-12-26T15:58:16.779Z,1.50
2022-12-26T16:00:50.121Z,1.40
2022-12-26T16:03:30.733Z,1.23
2022-12-26T16:06:16.070Z,2.15
2022-12-26T16:09:04.763Z,1.25
2022-12-26T16:11:54.199Z,1.30
2022-12-26T16:14:31.890Z,3.20
2022-12-26T16:17:19.654Z,1.60
2022-12-26T16:19:48.807Z,2.25
2022-12-26T16:22:41.788Z,6.65
2022-12-26T16:25:11.678Z,7.15
2022-12-26T16:27:39.854Z,13.02
2022-12-26T16:30:14.002Z,5.35
2022-12-26T16:32:43.897Z,5.00
2022-12-26T16:35:20.051Z,2.92
2022-12-26T16:37:50.987Z,8.17
2022-12-26T16:40:25.543Z,4.22
2022-12-26T16:43:02.679Z,1.85
2022-12-26T16:45:33.789Z,6.20
2022-12-26T16:48:02.195Z,11.23
2022-12-26T16:50:32.816Z,41.17
2022-12-26T16:53:10.837Z,15.20
2022-12-26T16:55:46.550Z,7.22
2022-12-26T16:58:19.037Z,3.35
2022-12-26T17:00:49.778Z,9.95
2022-12-26T17:03:27.385Z,3.38
2022-12-26T17:05:55.403Z,8.32
2022-12-26T17:08:25.970Z,34.78
2022-12-26T17:10:53.895Z,48.35
2022-12-26T17:13:25.654Z,55.08
2022-12-26T17:15:56.691Z,32.92
2022-12-26T17:18:41.397Z,6.68
2022-12-26T17:21:19.096Z,14.52
2022-12-26T17:24:17.595Z,2.20
2022-12-26T17:26:45.362Z,8.82
2022-12-26T17:29:50.522Z,4.57
2022-12-26T17:32:26.844Z,7.10
2022-12-26T17:34:54.632Z,5.37
2022-12-26T17:37:25.432Z,10.60
2022-12-26T17:40:03.067Z,6.55
2022-12-26T17:42:45.472Z,1.10
2022-12-26T17:45:17.483Z,1.73
2022-12-26T17:47:45.177Z,1.75
2022-12-26T17:50:13.448Z,3.08
2022-12-26T17:52:41.557Z,2.22
2022-12-26T17:55:19.711Z,6.28
2022-12-26T17:57:47.869Z,1.30
2022-12-26T18:00:18.200Z,6.43
2022-12-26T18:02:45.844Z,5.78
2022-12-26T18:05:14.076Z,4.45
2022-12-26T18:07:42.217Z,0.80
2022-12-26T18:10:19.342Z,0.80
2022-12-26T18:12:47.132Z,4.00
2022-12-26T18:15:14.823Z,1.08
2022-12-26T18:17:43.029Z,1.98
2022-12-26T18:20:16.895Z,2.67
2022-12-26T18:22:44.455Z,2.50
2022-12-26T18:25:13.464Z,1.90
2022-12-26T18:27:43.000Z,1.90
2022-12-26T18:30:17.297Z,5.13
2022-12-26T18:32:45.639Z,1.83
2022-12-26T18:35:14.000Z,1.73
2022-12-26T18:37:44.270Z,1.70
2022-12-26T18:40:27.310Z,0.90
2022-12-26T18:42:56.792Z,2.00
2022-12-26T18:45:24.586Z,0.90
2022-12-26T18:47:52.339Z,4.68
2022-12-26T18:50:20.325Z,2.70
2022-12-26T18:52:53.323Z,7.63
2022-12-26T18:55:22.011Z,3.15
2022-12-26T18:57:50.007Z,2.20
2022-12-26T19:00:20.985Z,2.87
2022-12-26T19:02:49.832Z,25.33
2022-12-26T19:05:20.828Z,11.63
2022-12-26T19:07:50.273Z,6.93
2022-12-26T19:10:19.111Z,5.90
2022-12-26T19:12:47.531Z,12.57
2022-12-26T19:15:16.008Z,10.70
2022-12-26T19:17:45.049Z,1.60
2022-12-26T19:20:25.269Z,12.40
2022-12-26T19:22:54.862Z,9.13
2022-12-26T19:25:24.181Z,6.22
2022-12-26T19:27:52.292Z,6.22
2022-12-26T19:30:21.412Z,2.20
2022-12-26T19:32:50.771Z,1.25
2022-12-26T19:35:19.039Z,2.35
2022-12-26T19:37:46.805Z,1.20
2022-12-26T19:40:21.197Z,1.40
2022-12-26T19:42:50.765Z,1.42
2022-12-26T19:45:18.611Z,1.10
2022-12-26T19:47:46.432Z,1.85
2022-12-26T19:50:15.845Z,1.40
2022-12-26T19:52:43.603Z,1.40
2022-12-26T19:55:12.835Z,1.38
2022-12-26T19:57:40.484Z,1.10
2022-12-26T20:00:11.066Z,1.40
2022-12-26T20:02:39.012Z,1.17
2022-12-26T20:05:07.720Z,1.10
2022-12-26T20:07:37.035Z,1.08
2022-12-26T20:10:05.727Z,1.00
2022-12-26T20:12:33.488Z,1.63
2022-12-26T20:15:01.203Z,1.10
2022-12-26T20:17:28.966Z,1.35
2022-12-26T20:19:56.823Z,0.82
2022-12-26T20:22:24.684Z,0.90
2022-12-26T20:24:53.807Z,2.92
2022-12-26T20:27:21.556Z,3.08
2022-12-26T20:29:49.224Z,1.80
2022-12-26T20:32:17.410Z,0.80
2022-12-26T20:34:45.173Z,1.20
2022-12-26T20:37:13.032Z,1.13
2022-12-26T20:39:40.799Z,1.50
2022-12-26T20:42:11.035Z,1.08
2022-12-26T20:44:41.453Z,1.00
2022-12-26T20:47:09.279Z,0.85
2022-12-26T20:49:37.026Z,0.70
2022-12-26T20:52:05.372Z,0.80
2022-12-26T20:54:33.230Z,1.13
2022-12-26T20:57:00.950Z,1.50
2022-12-26T20:59:30.210Z,1.10
2022-12-26T21:01:58.104Z,0.88
2022-12-26T21:04:25.749Z,1.30
2022-12-26T21:06:53.480Z,2.20
2022-12-26T21:09:21.085Z,1.77
2022-12-26T21:11:48.690Z,1.73
2022-12-26T21:14:18.406Z,1.98
2022-12-26T21:16:49.888Z,3.22
2022-12-26T21:19:18.866Z,2.10
2022-12-26T21:21:48.892Z,1.90
2022-12-26T21:24:19.292Z,1.90
2022-12-26T21:26:47.785Z,1.95
2022-12-26T21:29:18.995Z,1.70
2022-12-26T21:31:48.435Z,1.20
2022-12-26T21:34:17.571Z,1.80
2022-12-26T21:37:06.039Z,3.90
2022-12-26T21:39:34.954Z,2.78
2022-12-26T21:42:02.751Z,2.28
2022-12-26T21:44:30.311Z,1.88
2022-12-26T21:46:59.271Z,1.57
2022-12-26T21:49:26.821Z,1.40
2022-12-26T21:51:54.447Z,2.30
2022-12-26T21:54:44.823Z,1.70
2022-12-26T21:57:16.094Z,1.10
2022-12-26T21:59:59.664Z,1.20
2022-12-26T22:02:48.356Z,1.00
2022-12-26T22:05:17.008Z,0.90
2022-12-26T22:07:44.983Z,1.10
2022-12-26T22:10:34.621Z,1.10
2022-12-26T22:13:01.968Z,0.80
2022-12-26T22:15:47.363Z,0.70
2022-12-26T22:18:16.615Z,0.90
2022-12-26T22:20:45.806Z,0.73
2022-12-26T22:23:13.969Z,0.88
2022-12-26T22:25:41.611Z,1.20
2022-12-26T22:28:09.226Z,0.93
2022-12-26T22:30:36.801Z,0.90
2022-12-26T22:33:04.513Z,0.80
2022-12-26T22:35:33.579Z,1.38
2022-12-26T22:38:01.107Z,1.50
2022-12-26T22:40:28.638Z,1.50
2022-12-26T22:42:56.188Z,0.90
2022-12-26T22:45:23.788Z,0.70
2022-12-26T22:47:51.350Z,1.40
2022-12-26T22:50:19.121Z,1.15
2022-12-26T22:52:48.146Z,1.00
2022-12-26T22:55:15.771Z,0.80
2022-12-26T22:57:48.187Z,1.20
2022-12-26T23:00:19.054Z,1.27
2022-12-26T23:02:46.894Z,2.17
2022-12-26T23:05:15.380Z,3.70
2022-12-26T23:07:43.652Z,7.55
2022-12-26T23:10:19.051Z,4.53
2022-12-26T23:12:47.883Z,1.63
2022-12-26T23:15:18.439Z,20.38
2022-12-26T23:18:09.165Z,16.90
2022-12-26T23:20:56.575Z,7.70
2022-12-26T23:23:25.129Z,2.28
2022-12-26T23:25:54.144Z,4.53
2022-12-26T23:28:39.186Z,6.93
2022-12-26T23:31:06.838Z,5.68
2022-12-26T23:33:34.465Z,3.42
2022-12-26T23:36:02.302Z,3.58
2022-12-26T23:38:29.953Z,3.35
2022-12-26T23:40:58.837Z,5.35
2022-12-26T23:43:26.405Z,4.72
2022-12-26T23:45:53.993Z,2.80
2022-12-26T23:48:21.543Z,9.82
2022-12-26T23:50:49.466Z,8.90
2022-12-26T23:53:17.125Z,8.70
2022-12-26T23:55:44.664Z,7.47
2022-12-26T23:58:13.540Z,4.03
